Terminal Aerodrome Forecast
Issued by NWS

Home | Current Version | Previous Version | Text Only | Print | Product List | Glossary On
Versions: 1 2 3 4 5 6 7 8 9 10 11 12 13 14 15 16 17 18 19
000
FTUS43 KOAX 180900 AAC
TAFSNY
TAF AMD
KSNY 180939Z 1810/1906 19005KT 1/4SM FG VV003
      TEMPO 1810/1814 2SM BR OVC007
     FM181400 16006KT 5SM BR OVC008
     FM181600 16008KT P6SM SCT012
     FM181800 16010KT P6SM SKC=

USA.gov is the U.S. government's official web portal to all federal, state and local government web resources and services.